sensor_id;sensor_type;location;lat;lon;timestamp;P1;durP1;ratioP1;P2;durP2;ratioP2
8058;SDS011;4072;42.668;23.396;2022-10-16T00:01:28;9.03;;;5.40;;
8058;SDS011;4072;42.668;23.396;2022-10-16T00:03:58;14.67;;;7.47;;
8058;SDS011;4072;42.668;23.396;2022-10-16T00:06:27;9.73;;;8.67;;
8058;SDS011;4072;42.668;23.396;2022-10-16T00:08:55;7.77;;;6.57;;
8058;SDS011;4072;42.668;23.396;2022-10-16T00:11:24;9.50;;;7.90;;
8058;SDS011;4072;42.668;23.396;2022-10-16T00:13:55;8.90;;;7.83;;
8058;SDS011;4072;42.668;23.396;2022-10-16T00:16:24;8.50;;;7.00;;
8058;SDS011;4072;42.668;23.396;2022-10-16T00:18:54;11.73;;;8.83;;
8058;SDS011;4072;42.668;23.396;2022-10-16T00:21:24;12.47;;;9.33;;
8058;SDS011;4072;42.668;23.396;2022-10-16T00:23:53;16.70;;;11.40;;
8058;SDS011;4072;42.668;23.396;2022-10-16T00:26:21;16.47;;;12.13;;
8058;SDS011;4072;42.668;23.396;2022-10-16T00:28:49;14.33;;;10.90;;
8058;SDS011;4072;42.668;23.396;2022-10-16T00:31:18;14.13;;;11.13;;
8058;SDS011;4072;42.668;23.396;2022-10-16T00:33:46;12.73;;;11.17;;
8058;SDS011;4072;42.668;23.396;2022-10-16T00:36:18;16.93;;;12.03;;
8058;SDS011;4072;42.668;23.396;2022-10-16T00:38:47;15.13;;;11.00;;
8058;SDS011;4072;42.668;23.396;2022-10-16T00:41:20;13.17;;;10.53;;
8058;SDS011;4072;42.668;23.396;2022-10-16T00:43:48;13.17;;;10.67;;
8058;SDS011;4072;42.668;23.396;2022-10-16T00:46:17;17.03;;;11.90;;
8058;SDS011;4072;42.668;23.396;2022-10-16T00:48:49;13.57;;;11.20;;
8058;SDS011;4072;42.668;23.396;2022-10-16T00:51:21;12.87;;;10.80;;
8058;SDS011;4072;42.668;23.396;2022-10-16T00:53:50;17.57;;;11.97;;
8058;SDS011;4072;42.668;23.396;2022-10-16T00:56:18;14.33;;;10.97;;
8058;SDS011;4072;42.668;23.396;2022-10-16T00:58:46;22.00;;;13.53;;
8058;SDS011;4072;42.668;23.396;2022-10-16T01:01:14;16.90;;;12.53;;
8058;SDS011;4072;42.668;23.396;2022-10-16T01:03:42;17.83;;;13.73;;
8058;SDS011;4072;42.668;23.396;2022-10-16T01:06:27;17.70;;;13.33;;
8058;SDS011;4072;42.668;23.396;2022-10-16T01:09:08;22.00;;;14.80;;
8058;SDS011;4072;42.668;23.396;2022-10-16T01:11:38;16.90;;;14.37;;
8058;SDS011;4072;42.668;23.396;2022-10-16T01:14:10;21.47;;;13.27;;
8058;SDS011;4072;42.668;23.396;2022-10-16T01:16:40;19.00;;;13.90;;
8058;SDS011;4072;42.668;23.396;2022-10-16T01:19:12;18.33;;;14.13;;
8058;SDS011;4072;42.668;23.396;2022-10-16T01:21:43;18.37;;;14.00;;
8058;SDS011;4072;42.668;23.396;2022-10-16T01:24:15;20.67;;;13.50;;
8058;SDS011;4072;42.668;23.396;2022-10-16T01:26:50;18.93;;;13.43;;
8058;SDS011;4072;42.668;23.396;2022-10-16T01:29:23;16.40;;;12.23;;
8058;SDS011;4072;42.668;23.396;2022-10-16T01:31:54;16.23;;;11.90;;
8058;SDS011;4072;42.668;23.396;2022-10-16T01:34:25;17.00;;;11.70;;
8058;SDS011;4072;42.668;23.396;2022-10-16T01:36:57;13.50;;;10.80;;
8058;SDS011;4072;42.668;23.396;2022-10-16T01:39:28;12.17;;;9.03;;
8058;SDS011;4072;42.668;23.396;2022-10-16T01:41:58;12.80;;;9.73;;
8058;SDS011;4072;42.668;23.396;2022-10-16T01:44:30;11.90;;;9.57;;
8058;SDS011;4072;42.668;23.396;2022-10-16T01:46:58;14.87;;;10.47;;
8058;SDS011;4072;42.668;23.396;2022-10-16T01:49:27;14.43;;;10.50;;
8058;SDS011;4072;42.668;23.396;2022-10-16T01:51:58;12.53;;;11.23;;
8058;SDS011;4072;42.668;23.396;2022-10-16T01:54:31;15.10;;;11.87;;
8058;SDS011;4072;42.668;23.396;2022-10-16T01:57:01;21.77;;;16.80;;
8058;SDS011;4072;42.668;23.396;2022-10-16T01:59:31;35.67;;;23.47;;
8058;SDS011;4072;42.668;23.396;2022-10-16T02:02:01;24.37;;;18.60;;
8058;SDS011;4072;42.668;23.396;2022-10-16T02:04:34;24.53;;;17.37;;
8058;SDS011;4072;42.668;23.396;2022-10-16T02:07:04;23.57;;;15.93;;
8058;SDS011;4072;42.668;23.396;2022-10-16T02:09:34;22.20;;;14.03;;
8058;SDS011;4072;42.668;23.396;2022-10-16T02:12:03;15.37;;;11.40;;
8058;SDS011;4072;42.668;23.396;2022-10-16T02:14:35;10.97;;;9.77;;
8058;SDS011;4072;42.668;23.396;2022-10-16T02:17:09;14.17;;;9.90;;
8058;SDS011;4072;42.668;23.396;2022-10-16T02:19:37;17.57;;;11.00;;
8058;SDS011;4072;42.668;23.396;2022-10-16T02:22:05;16.33;;;11.83;;
8058;SDS011;4072;42.668;23.396;2022-10-16T02:24:35;14.73;;;10.27;;
8058;SDS011;4072;42.668;23.396;2022-10-16T02:27:07;14.67;;;10.03;;
8058;SDS011;4072;42.668;23.396;2022-10-16T02:29:39;16.00;;;9.93;;
8058;SDS011;4072;42.668;23.396;2022-10-16T02:32:11;16.10;;;11.67;;
8058;SDS011;4072;42.668;23.396;2022-10-16T02:34:40;12.10;;;10.10;;
8058;SDS011;4072;42.668;23.396;2022-10-16T02:37:08;13.63;;;8.73;;
8058;SDS011;4072;42.668;23.396;2022-10-16T02:39:36;11.77;;;9.23;;
8058;SDS011;4072;42.668;23.396;2022-10-16T02:42:09;10.27;;;8.77;;
8058;SDS011;4072;42.668;23.396;2022-10-16T02:44:39;14.63;;;9.63;;
8058;SDS011;4072;42.668;23.396;2022-10-16T02:47:07;8.80;;;7.90;;
8058;SDS011;4072;42.668;23.396;2022-10-16T02:49:35;9.37;;;7.90;;
8058;SDS011;4072;42.668;23.396;2022-10-16T02:52:04;10.13;;;8.77;;
8058;SDS011;4072;42.668;23.396;2022-10-16T02:54:32;9.00;;;8.07;;
8058;SDS011;4072;42.668;23.396;2022-10-16T02:57:00;11.17;;;7.93;;
8058;SDS011;4072;42.668;23.396;2022-10-16T02:59:30;12.87;;;8.70;;
8058;SDS011;4072;42.668;23.396;2022-10-16T03:02:02;10.03;;;8.33;;
8058;SDS011;4072;42.668;23.396;2022-10-16T03:04:30;9.97;;;8.50;;
8058;SDS011;4072;42.668;23.396;2022-10-16T03:06:57;11.30;;;9.20;;
8058;SDS011;4072;42.668;23.396;2022-10-16T03:09:25;10.97;;;9.23;;
8058;SDS011;4072;42.668;23.396;2022-10-16T03:11:53;9.63;;;8.67;;
8058;SDS011;4072;42.668;23.396;2022-10-16T03:14:22;12.53;;;9.60;;
8058;SDS011;4072;42.668;23.396;2022-10-16T03:16:49;10.40;;;9.07;;
8058;SDS011;4072;42.668;23.396;2022-10-16T03:19:19;10.83;;;8.40;;
8058;SDS011;4072;42.668;23.396;2022-10-16T03:21:47;10.80;;;8.93;;
8058;SDS011;4072;42.668;23.396;2022-10-16T03:24:15;10.60;;;8.10;;
8058;SDS011;4072;42.668;23.396;2022-10-16T03:26:44;13.93;;;8.80;;
8058;SDS011;4072;42.668;23.396;2022-10-16T03:29:13;14.07;;;9.30;;
8058;SDS011;4072;42.668;23.396;2022-10-16T03:31:41;12.40;;;9.20;;
8058;SDS011;4072;42.668;23.396;2022-10-16T03:34:09;12.00;;;8.57;;
8058;SDS011;4072;42.668;23.396;2022-10-16T03:36:38;9.63;;;8.63;;
8058;SDS011;4072;42.668;23.396;2022-10-16T03:39:06;8.97;;;8.07;;
8058;SDS011;4072;42.668;23.396;2022-10-16T03:41:34;10.07;;;8.70;;
8058;SDS011;4072;42.668;23.396;2022-10-16T03:44:02;9.73;;;8.17;;
8058;SDS011;4072;42.668;23.396;2022-10-16T03:46:30;10.87;;;8.70;;
8058;SDS011;4072;42.668;23.396;2022-10-16T03:48:59;9.60;;;8.13;;
8058;SDS011;4072;42.668;23.396;2022-10-16T03:51:30;10.30;;;7.07;;
8058;SDS011;4072;42.668;23.396;2022-10-16T03:53:59;10.10;;;8.17;;
8058;SDS011;4072;42.668;23.396;2022-10-16T03:56:27;11.30;;;9.03;;
8058;SDS011;4072;42.668;23.396;2022-10-16T03:58:55;9.30;;;7.77;;
8058;SDS011;4072;42.668;23.396;2022-10-16T04:01:23;9.53;;;7.63;;
8058;SDS011;4072;42.668;23.396;2022-10-16T04:03:51;10.93;;;7.93;;
8058;SDS011;4072;42.668;23.396;2022-10-16T04:06:19;10.20;;;7.67;;
8058;SDS011;4072;42.668;23.396;2022-10-16T04:08:49;8.40;;;7.47;;
8058;SDS011;4072;42.668;23.396;2022-10-16T04:11:18;8.80;;;7.30;;
8058;SDS011;4072;42.668;23.396;2022-10-16T04:13:46;13.30;;;8.97;;
8058;SDS011;4072;42.668;23.396;2022-10-16T04:16:15;9.10;;;8.10;;
8058;SDS011;4072;42.668;23.396;2022-10-16T04:18:45;10.00;;;8.63;;
8058;SDS011;4072;42.668;23.396;2022-10-16T04:21:13;10.17;;;7.57;;
8058;SDS011;4072;42.668;23.396;2022-10-16T04:23:41;10.33;;;8.23;;
8058;SDS011;4072;42.668;23.396;2022-10-16T04:26:09;11.63;;;9.30;;
8058;SDS011;4072;42.668;23.396;2022-10-16T04:28:39;10.30;;;8.17;;
8058;SDS011;4072;42.668;23.396;2022-10-16T04:31:07;11.13;;;7.87;;
8058;SDS011;4072;42.668;23.396;2022-10-16T04:33:35;8.30;;;7.40;;
8058;SDS011;4072;42.668;23.396;2022-10-16T04:36:03;10.83;;;8.87;;
8058;SDS011;4072;42.668;23.396;2022-10-16T04:38:31;14.13;;;9.33;;
8058;SDS011;4072;42.668;23.396;2022-10-16T04:40:59;10.97;;;8.87;;
8058;SDS011;4072;42.668;23.396;2022-10-16T04:43:27;10.10;;;8.13;;
8058;SDS011;4072;42.668;23.396;2022-10-16T04:46:01;11.20;;;9.07;;
8058;SDS011;4072;42.668;23.396;2022-10-16T04:48:30;11.50;;;8.83;;
8058;SDS011;4072;42.668;23.396;2022-10-16T04:50:58;10.17;;;7.17;;
8058;SDS011;4072;42.668;23.396;2022-10-16T04:53:26;10.33;;;8.10;;
8058;SDS011;4072;42.668;23.396;2022-10-16T04:55:55;17.10;;;9.17;;
8058;SDS011;4072;42.668;23.396;2022-10-16T04:58:23;13.27;;;8.97;;
8058;SDS011;4072;42.668;23.396;2022-10-16T05:00:51;12.73;;;8.70;;
8058;SDS011;4072;42.668;23.396;2022-10-16T05:03:20;11.00;;;8.27;;
8058;SDS011;4072;42.668;23.396;2022-10-16T05:05:50;10.27;;;7.97;;
8058;SDS011;4072;42.668;23.396;2022-10-16T05:08:18;30.80;;;23.90;;
8058;SDS011;4072;42.668;23.396;2022-10-16T05:10:46;25.27;;;17.63;;
8058;SDS011;4072;42.668;23.396;2022-10-16T05:13:14;25.10;;;17.93;;
8058;SDS011;4072;42.668;23.396;2022-10-16T05:15:46;25.10;;;19.33;;
8058;SDS011;4072;42.668;23.396;2022-10-16T05:18:14;28.07;;;19.90;;
8058;SDS011;4072;42.668;23.396;2022-10-16T05:20:44;18.83;;;14.40;;
8058;SDS011;4072;42.668;23.396;2022-10-16T05:23:12;23.03;;;17.27;;
8058;SDS011;4072;42.668;23.396;2022-10-16T05:25:40;20.17;;;12.37;;
8058;SDS011;4072;42.668;23.396;2022-10-16T05:28:08;17.70;;;12.83;;
8058;SDS011;4072;42.668;23.396;2022-10-16T05:30:36;17.90;;;13.20;;
8058;SDS011;4072;42.668;23.396;2022-10-16T05:33:04;18.27;;;14.23;;
8058;SDS011;4072;42.668;23.396;2022-10-16T05:35:32;16.93;;;12.47;;
8058;SDS011;4072;42.668;23.396;2022-10-16T05:38:04;22.50;;;13.23;;
8058;SDS011;4072;42.668;23.396;2022-10-16T05:40:32;14.87;;;12.37;;
8058;SDS011;4072;42.668;23.396;2022-10-16T05:42:59;19.23;;;13.47;;
8058;SDS011;4072;42.668;23.396;2022-10-16T05:45:27;21.07;;;16.57;;
8058;SDS011;4072;42.668;23.396;2022-10-16T05:47:56;18.87;;;14.20;;
8058;SDS011;4072;42.668;23.396;2022-10-16T05:50:23;13.17;;;10.53;;
8058;SDS011;4072;42.668;23.396;2022-10-16T05:52:51;16.67;;;12.33;;
8058;SDS011;4072;42.668;23.396;2022-10-16T05:55:22;13.67;;;10.47;;
8058;SDS011;4072;42.668;23.396;2022-10-16T05:57:50;13.80;;;10.50;;
8058;SDS011;4072;42.668;23.396;2022-10-16T06:00:18;16.27;;;10.80;;
8058;SDS011;4072;42.668;23.396;2022-10-16T06:02:46;12.67;;;9.90;;
8058;SDS011;4072;42.668;23.396;2022-10-16T06:05:15;11.27;;;9.93;;
8058;SDS011;4072;42.668;23.396;2022-10-16T06:07:42;10.87;;;8.27;;
8058;SDS011;4072;42.668;23.396;2022-10-16T06:10:10;15.47;;;10.27;;
8058;SDS011;4072;42.668;23.396;2022-10-16T06:12:41;10.77;;;9.67;;
8058;SDS011;4072;42.668;23.396;2022-10-16T06:15:09;14.03;;;10.53;;
8058;SDS011;4072;42.668;23.396;2022-10-16T06:17:36;11.63;;;9.43;;
8058;SDS011;4072;42.668;23.396;2022-10-16T06:20:05;16.40;;;10.00;;
8058;SDS011;4072;42.668;23.396;2022-10-16T06:22:33;11.70;;;8.77;;
8058;SDS011;4072;42.668;23.396;2022-10-16T06:25:01;10.00;;;8.83;;
8058;SDS011;4072;42.668;23.396;2022-10-16T06:27:29;11.33;;;8.97;;
8058;SDS011;4072;42.668;23.396;2022-10-16T06:29:59;15.93;;;10.17;;
8058;SDS011;4072;42.668;23.396;2022-10-16T06:32:27;14.67;;;9.57;;
8058;SDS011;4072;42.668;23.396;2022-10-16T06:34:55;11.03;;;8.40;;
8058;SDS011;4072;42.668;23.396;2022-10-16T06:37:23;12.90;;;9.67;;
8058;SDS011;4072;42.668;23.396;2022-10-16T06:39:52;9.60;;;8.27;;
8058;SDS011;4072;42.668;23.396;2022-10-16T06:42:21;13.80;;;9.73;;
8058;SDS011;4072;42.668;23.396;2022-10-16T06:44:49;11.90;;;8.70;;
8058;SDS011;4072;42.668;23.396;2022-10-16T06:47:19;8.43;;;6.53;;
8058;SDS011;4072;42.668;23.396;2022-10-16T06:49:49;10.70;;;8.37;;
8058;SDS011;4072;42.668;23.396;2022-10-16T06:52:19;9.97;;;8.70;;
8058;SDS011;4072;42.668;23.396;2022-10-16T06:54:48;9.33;;;7.27;;
8058;SDS011;4072;42.668;23.396;2022-10-16T06:57:17;8.90;;;7.37;;
8058;SDS011;4072;42.668;23.396;2022-10-16T06:59:46;9.77;;;7.87;;
8058;SDS011;4072;42.668;23.396;2022-10-16T07:02:21;9.10;;;7.50;;
8058;SDS011;4072;42.668;23.396;2022-10-16T07:04:50;10.83;;;7.50;;
8058;SDS011;4072;42.668;23.396;2022-10-16T07:07:18;10.17;;;8.50;;
8058;SDS011;4072;42.668;23.396;2022-10-16T07:09:46;8.37;;;7.20;;
8058;SDS011;4072;42.668;23.396;2022-10-16T07:12:14;11.13;;;7.37;;
8058;SDS011;4072;42.668;23.396;2022-10-16T07:14:42;8.60;;;7.63;;
8058;SDS011;4072;42.668;23.396;2022-10-16T07:17:12;10.73;;;7.87;;
8058;SDS011;4072;42.668;23.396;2022-10-16T07:19:42;7.50;;;6.80;;
8058;SDS011;4072;42.668;23.396;2022-10-16T07:22:16;8.60;;;7.37;;
8058;SDS011;4072;42.668;23.396;2022-10-16T07:24:44;8.40;;;7.53;;
8058;SDS011;4072;42.668;23.396;2022-10-16T07:27:17;17.33;;;8.27;;
8058;SDS011;4072;42.668;23.396;2022-10-16T07:29:46;8.93;;;7.90;;
8058;SDS011;4072;42.668;23.396;2022-10-16T07:32:14;9.80;;;7.93;;
8058;SDS011;4072;42.668;23.396;2022-10-16T07:34:45;10.00;;;7.97;;
8058;SDS011;4072;42.668;23.396;2022-10-16T07:37:14;9.00;;;8.00;;
8058;SDS011;4072;42.668;23.396;2022-10-16T07:39:43;7.93;;;7.13;;
8058;SDS011;4072;42.668;23.396;2022-10-16T07:42:11;10.97;;;7.70;;
8058;SDS011;4072;42.668;23.396;2022-10-16T07:44:39;15.93;;;10.77;;
8058;SDS011;4072;42.668;23.396;2022-10-16T07:47:07;20.00;;;11.87;;
8058;SDS011;4072;42.668;23.396;2022-10-16T07:49:37;13.13;;;8.63;;
8058;SDS011;4072;42.668;23.396;2022-10-16T07:52:06;16.20;;;9.47;;
8058;SDS011;4072;42.668;23.396;2022-10-16T07:54:35;10.60;;;9.43;;
8058;SDS011;4072;42.668;23.396;2022-10-16T07:57:03;12.63;;;9.70;;
8058;SDS011;4072;42.668;23.396;2022-10-16T07:59:32;8.83;;;7.50;;
8058;SDS011;4072;42.668;23.396;2022-10-16T08:01:59;11.33;;;8.00;;
8058;SDS011;4072;42.668;23.396;2022-10-16T08:04:27;8.50;;;6.67;;
8058;SDS011;4072;42.668;23.396;2022-10-16T08:06:55;9.03;;;7.17;;
8058;SDS011;4072;42.668;23.396;2022-10-16T08:09:25;11.87;;;7.77;;
8058;SDS011;4072;42.668;23.396;2022-10-16T08:11:53;7.63;;;5.80;;
8058;SDS011;4072;42.668;23.396;2022-10-16T08:14:27;9.57;;;7.37;;
8058;SDS011;4072;42.668;23.396;2022-10-16T08:16:55;7.70;;;5.77;;
8058;SDS011;4072;42.668;23.396;2022-10-16T08:19:23;7.63;;;5.87;;
8058;SDS011;4072;42.668;23.396;2022-10-16T08:21:51;8.17;;;6.27;;
8058;SDS011;4072;42.668;23.396;2022-10-16T08:24:19;5.93;;;5.33;;
8058;SDS011;4072;42.668;23.396;2022-10-16T08:26:48;6.97;;;5.63;;
8058;SDS011;4072;42.668;23.396;2022-10-16T08:29:17;7.10;;;5.27;;
8058;SDS011;4072;42.668;23.396;2022-10-16T08:31:45;6.30;;;5.70;;
8058;SDS011;4072;42.668;23.396;2022-10-16T08:34:13;5.83;;;5.20;;
8058;SDS011;4072;42.668;23.396;2022-10-16T08:36:41;5.67;;;4.27;;
8058;SDS011;4072;42.668;23.396;2022-10-16T08:39:09;7.00;;;4.70;;
8058;SDS011;4072;42.668;23.396;2022-10-16T08:44:41;5.40;;;4.00;;
8058;SDS011;4072;42.668;23.396;2022-10-16T08:47:13;5.77;;;4.27;;
8058;SDS011;4072;42.668;23.396;2022-10-16T08:49:42;7.13;;;5.13;;
8058;SDS011;4072;42.668;23.396;2022-10-16T08:52:10;4.87;;;3.90;;
8058;SDS011;4072;42.668;23.396;2022-10-16T08:54:40;4.20;;;2.70;;
8058;SDS011;4072;42.668;23.396;2022-10-16T08:57:12;3.63;;;3.10;;
8058;SDS011;4072;42.668;23.396;2022-10-16T08:59:50;5.40;;;3.70;;
8058;SDS011;4072;42.668;23.396;2022-10-16T09:02:27;3.33;;;3.03;;
8058;SDS011;4072;42.668;23.396;2022-10-16T09:07:41;5.77;;;4.70;;
8058;SDS011;4072;42.668;23.396;2022-10-16T09:10:19;4.47;;;3.20;;
8058;SDS011;4072;42.668;23.396;2022-10-16T09:12:52;4.47;;;3.80;;
8058;SDS011;4072;42.668;23.396;2022-10-16T09:15:27;3.70;;;3.40;;
8058;SDS011;4072;42.668;23.396;2022-10-16T09:17:59;3.70;;;3.30;;
8058;SDS011;4072;42.668;23.396;2022-10-16T09:20:33;3.37;;;3.00;;
8058;SDS011;4072;42.668;23.396;2022-10-16T09:23:16;3.30;;;3.00;;
8058;SDS011;4072;42.668;23.396;2022-10-16T09:25:45;3.53;;;3.23;;
8058;SDS011;4072;42.668;23.396;2022-10-16T09:28:15;3.30;;;3.00;;
8058;SDS011;4072;42.668;23.396;2022-10-16T09:30:47;3.10;;;2.80;;
8058;SDS011;4072;42.668;23.396;2022-10-16T09:33:17;5.40;;;3.67;;
8058;SDS011;4072;42.668;23.396;2022-10-16T09:35:46;4.07;;;3.43;;
8058;SDS011;4072;42.668;23.396;2022-10-16T09:38:22;4.60;;;3.87;;
8058;SDS011;4072;42.668;23.396;2022-10-16T09:40:50;5.13;;;4.63;;
8058;SDS011;4072;42.668;23.396;2022-10-16T09:43:28;3.77;;;3.10;;
8058;SDS011;4072;42.668;23.396;2022-10-16T09:46:01;3.53;;;3.10;;
8058;SDS011;4072;42.668;23.396;2022-10-16T09:48:31;3.90;;;3.13;;
8058;SDS011;4072;42.668;23.396;2022-10-16T09:51:01;5.07;;;3.93;;
8058;SDS011;4072;42.668;23.396;2022-10-16T09:53:38;4.90;;;3.70;;
8058;SDS011;4072;42.668;23.396;2022-10-16T09:56:06;5.50;;;3.57;;
8058;SDS011;4072;42.668;23.396;2022-10-16T09:58:42;5.00;;;3.37;;
8058;SDS011;4072;42.668;23.396;2022-10-16T10:01:13;5.13;;;2.93;;
8058;SDS011;4072;42.668;23.396;2022-10-16T10:03:43;4.57;;;3.17;;
8058;SDS011;4072;42.668;23.396;2022-10-16T10:06:16;4.60;;;3.17;;
8058;SDS011;4072;42.668;23.396;2022-10-16T10:09:02;3.13;;;2.83;;
8058;SDS011;4072;42.668;23.396;2022-10-16T10:11:39;4.30;;;2.90;;
8058;SDS011;4072;42.668;23.396;2022-10-16T10:14:09;4.60;;;4.10;;
8058;SDS011;4072;42.668;23.396;2022-10-16T10:16:43;4.60;;;3.10;;
8058;SDS011;4072;42.668;23.396;2022-10-16T10:19:13;3.67;;;2.97;;
8058;SDS011;4072;42.668;23.396;2022-10-16T10:21:42;4.23;;;3.87;;
8058;SDS011;4072;42.668;23.396;2022-10-16T10:24:10;3.27;;;2.90;;
8058;SDS011;4072;42.668;23.396;2022-10-16T10:26:38;5.63;;;3.00;;
8058;SDS011;4072;42.668;23.396;2022-10-16T10:29:15;3.23;;;2.93;;
8058;SDS011;4072;42.668;23.396;2022-10-16T10:31:47;3.37;;;2.87;;
8058;SDS011;4072;42.668;23.396;2022-10-16T10:34:21;3.23;;;2.70;;
8058;SDS011;4072;42.668;23.396;2022-10-16T10:36:54;4.30;;;2.90;;
8058;SDS011;4072;42.668;23.396;2022-10-16T10:39:26;3.53;;;3.23;;
8058;SDS011;4072;42.668;23.396;2022-10-16T10:42:00;3.10;;;2.80;;
8058;SDS011;4072;42.668;23.396;2022-10-16T10:44:33;4.00;;;2.57;;
8058;SDS011;4072;42.668;23.396;2022-10-16T10:47:08;2.43;;;2.23;;
8058;SDS011;4072;42.668;23.396;2022-10-16T10:49:44;4.57;;;2.10;;
8058;SDS011;4072;42.668;23.396;2022-10-16T10:52:23;2.23;;;2.03;;
8058;SDS011;4072;42.668;23.396;2022-10-16T10:54:56;3.40;;;2.43;;
8058;SDS011;4072;42.668;23.396;2022-10-16T10:57:29;2.20;;;2.00;;
8058;SDS011;4072;42.668;23.396;2022-10-16T11:00:07;2.80;;;2.40;;
8058;SDS011;4072;42.668;23.396;2022-10-16T11:02:44;2.73;;;2.47;;
8058;SDS011;4072;42.668;23.396;2022-10-16T11:05:18;3.60;;;2.70;;
8058;SDS011;4072;42.668;23.396;2022-10-16T11:07:49;4.67;;;2.93;;
8058;SDS011;4072;42.668;23.396;2022-10-16T11:10:19;2.77;;;2.40;;
8058;SDS011;4072;42.668;23.396;2022-10-16T11:12:50;4.37;;;2.87;;
8058;SDS011;4072;42.668;23.396;2022-10-16T11:15:21;3.10;;;2.80;;
8058;SDS011;4072;42.668;23.396;2022-10-16T11:17:54;2.43;;;2.20;;
8058;SDS011;4072;42.668;23.396;2022-10-16T11:20:25;3.50;;;2.77;;
8058;SDS011;4072;42.668;23.396;2022-10-16T11:22:56;3.20;;;2.83;;
8058;SDS011;4072;42.668;23.396;2022-10-16T11:25:27;2.60;;;2.40;;
8058;SDS011;4072;42.668;23.396;2022-10-16T11:27:57;3.00;;;2.40;;
8058;SDS011;4072;42.668;23.396;2022-10-16T11:30:27;3.27;;;2.43;;
8058;SDS011;4072;42.668;23.396;2022-10-16T11:35:43;3.00;;;2.50;;
8058;SDS011;4072;42.668;23.396;2022-10-16T11:38:14;3.37;;;2.60;;
8058;SDS011;4072;42.668;23.396;2022-10-16T11:40:43;2.70;;;2.50;;
8058;SDS011;4072;42.668;23.396;2022-10-16T11:43:14;3.10;;;2.80;;
8058;SDS011;4072;42.668;23.396;2022-10-16T11:45:43;2.73;;;2.50;;
8058;SDS011;4072;42.668;23.396;2022-10-16T11:48:15;3.03;;;2.40;;
8058;SDS011;4072;42.668;23.396;2022-10-16T11:50:50;3.53;;;2.80;;
8058;SDS011;4072;42.668;23.396;2022-10-16T11:53:22;3.03;;;2.70;;
8058;SDS011;4072;42.668;23.396;2022-10-16T11:55:51;2.33;;;2.13;;
8058;SDS011;4072;42.668;23.396;2022-10-16T11:58:21;3.27;;;2.13;;
8058;SDS011;4072;42.668;23.396;2022-10-16T12:00:52;5.17;;;2.50;;
8058;SDS011;4072;42.668;23.396;2022-10-16T12:03:22;6.87;;;2.50;;
8058;SDS011;4072;42.668;23.396;2022-10-16T12:06:01;3.47;;;2.33;;
8058;SDS011;4072;42.668;23.396;2022-10-16T12:08:33;3.20;;;2.90;;
8058;SDS011;4072;42.668;23.396;2022-10-16T12:11:08;2.47;;;2.10;;
8058;SDS011;4072;42.668;23.396;2022-10-16T12:13:37;3.53;;;2.60;;
8058;SDS011;4072;42.668;23.396;2022-10-16T12:16:06;2.50;;;2.30;;
8058;SDS011;4072;42.668;23.396;2022-10-16T12:18:34;4.00;;;2.47;;
8058;SDS011;4072;42.668;23.396;2022-10-16T12:21:03;4.27;;;2.60;;
8058;SDS011;4072;42.668;23.396;2022-10-16T12:23:33;5.13;;;2.57;;
8058;SDS011;4072;42.668;23.396;2022-10-16T12:26:04;2.47;;;2.20;;
8058;SDS011;4072;42.668;23.396;2022-10-16T12:28:32;3.33;;;2.57;;
8058;SDS011;4072;42.668;23.396;2022-10-16T12:31:01;3.07;;;2.40;;
8058;SDS011;4072;42.668;23.396;2022-10-16T12:33:29;3.30;;;2.50;;
8058;SDS011;4072;42.668;23.396;2022-10-16T12:35:59;2.57;;;2.20;;
8058;SDS011;4072;42.668;23.396;2022-10-16T12:38:30;2.40;;;2.10;;
8058;SDS011;4072;42.668;23.396;2022-10-16T12:41:02;2.30;;;1.93;;
8058;SDS011;4072;42.668;23.396;2022-10-16T12:43:37;5.13;;;2.53;;
8058;SDS011;4072;42.668;23.396;2022-10-16T12:46:20;2.43;;;2.23;;
8058;SDS011;4072;42.668;23.396;2022-10-16T12:48:48;2.53;;;2.00;;
8058;SDS011;4072;42.668;23.396;2022-10-16T12:51:34;2.60;;;2.30;;
8058;SDS011;4072;42.668;23.396;2022-10-16T12:54:10;3.33;;;2.40;;
8058;SDS011;4072;42.668;23.396;2022-10-16T12:56:41;2.40;;;2.20;;
8058;SDS011;4072;42.668;23.396;2022-10-16T12:59:16;1.90;;;1.70;;
8058;SDS011;4072;42.668;23.396;2022-10-16T13:01:52;2.63;;;2.30;;
8058;SDS011;4072;42.668;23.396;2022-10-16T13:04:30;2.57;;;2.10;;
8058;SDS011;4072;42.668;23.396;2022-10-16T13:07:03;2.20;;;2.00;;
8058;SDS011;4072;42.668;23.396;2022-10-16T13:09:45;3.37;;;2.50;;
8058;SDS011;4072;42.668;23.396;2022-10-16T13:12:24;2.17;;;1.97;;
8058;SDS011;4072;42.668;23.396;2022-10-16T13:14:58;2.33;;;2.10;;
8058;SDS011;4072;42.668;23.396;2022-10-16T13:17:31;2.60;;;2.20;;
8058;SDS011;4072;42.668;23.396;2022-10-16T13:20:06;5.13;;;2.10;;
8058;SDS011;4072;42.668;23.396;2022-10-16T13:22:45;4.33;;;2.80;;
8058;SDS011;4072;42.668;23.396;2022-10-16T13:25:26;3.10;;;1.93;;
8058;SDS011;4072;42.668;23.396;2022-10-16T13:27:57;2.30;;;2.10;;
8058;SDS011;4072;42.668;23.396;2022-10-16T13:30:26;2.67;;;2.40;;
8058;SDS011;4072;42.668;23.396;2022-10-16T13:32:58;3.13;;;2.27;;
8058;SDS011;4072;42.668;23.396;2022-10-16T13:35:27;2.63;;;2.10;;
8058;SDS011;4072;42.668;23.396;2022-10-16T13:38:05;3.80;;;2.23;;
8058;SDS011;4072;42.668;23.396;2022-10-16T13:40:47;4.17;;;2.37;;
8058;SDS011;4072;42.668;23.396;2022-10-16T13:43:16;2.47;;;2.20;;
8058;SDS011;4072;42.668;23.396;2022-10-16T13:45:52;3.83;;;2.63;;
8058;SDS011;4072;42.668;23.396;2022-10-16T13:48:19;2.40;;;2.10;;
8058;SDS011;4072;42.668;23.396;2022-10-16T13:50:57;2.60;;;2.30;;
8058;SDS011;4072;42.668;23.396;2022-10-16T13:53:25;5.10;;;2.20;;
8058;SDS011;4072;42.668;23.396;2022-10-16T13:55:54;3.30;;;2.60;;
8058;SDS011;4072;42.668;23.396;2022-10-16T13:58:22;4.17;;;2.63;;
8058;SDS011;4072;42.668;23.396;2022-10-16T14:00:53;2.03;;;1.93;;
8058;SDS011;4072;42.668;23.396;2022-10-16T14:03:22;3.23;;;2.43;;
8058;SDS011;4072;42.668;23.396;2022-10-16T14:05:51;2.50;;;2.10;;
8058;SDS011;4072;42.668;23.396;2022-10-16T14:08:20;3.03;;;2.40;;
8058;SDS011;4072;42.668;23.396;2022-10-16T14:10:48;1.50;;;1.40;;
8058;SDS011;4072;42.668;23.396;2022-10-16T14:13:19;3.47;;;3.00;;
8058;SDS011;4072;42.668;23.396;2022-10-16T14:15:50;3.93;;;2.00;;
8058;SDS011;4072;42.668;23.396;2022-10-16T14:18:22;2.53;;;1.60;;
8058;SDS011;4072;42.668;23.396;2022-10-16T14:20:50;4.17;;;1.80;;
8058;SDS011;4072;42.668;23.396;2022-10-16T14:23:20;3.83;;;2.60;;
8058;SDS011;4072;42.668;23.396;2022-10-16T14:25:47;1.87;;;1.70;;
8058;SDS011;4072;42.668;23.396;2022-10-16T14:28:16;1.67;;;1.57;;
8058;SDS011;4072;42.668;23.396;2022-10-16T14:30:52;2.90;;;2.00;;
8058;SDS011;4072;42.668;23.396;2022-10-16T14:33:22;2.87;;;2.33;;
8058;SDS011;4072;42.668;23.396;2022-10-16T14:36:00;4.13;;;1.93;;
8058;SDS011;4072;42.668;23.396;2022-10-16T14:38:28;2.73;;;1.80;;
8058;SDS011;4072;42.668;23.396;2022-10-16T14:40:57;2.90;;;1.67;;
8058;SDS011;4072;42.668;23.396;2022-10-16T14:43:29;4.60;;;2.07;;
8058;SDS011;4072;42.668;23.396;2022-10-16T14:45:59;2.37;;;2.10;;
8058;SDS011;4072;42.668;23.396;2022-10-16T14:48:28;6.97;;;2.20;;
8058;SDS011;4072;42.668;23.396;2022-10-16T14:50:56;2.23;;;1.90;;
8058;SDS011;4072;42.668;23.396;2022-10-16T14:53:24;2.63;;;2.33;;
8058;SDS011;4072;42.668;23.396;2022-10-16T14:55:52;2.17;;;1.70;;
8058;SDS011;4072;42.668;23.396;2022-10-16T14:58:21;2.30;;;2.10;;
8058;SDS011;4072;42.668;23.396;2022-10-16T15:00:50;3.90;;;2.40;;
8058;SDS011;4072;42.668;23.396;2022-10-16T15:03:20;2.50;;;2.27;;
8058;SDS011;4072;42.668;23.396;2022-10-16T15:05:47;2.90;;;2.27;;
8058;SDS011;4072;42.668;23.396;2022-10-16T15:08:15;2.33;;;2.13;;
8058;SDS011;4072;42.668;23.396;2022-10-16T15:10:43;3.70;;;2.23;;
8058;SDS011;4072;42.668;23.396;2022-10-16T15:13:12;3.40;;;2.40;;
8058;SDS011;4072;42.668;23.396;2022-10-16T15:15:41;4.37;;;2.17;;
8058;SDS011;4072;42.668;23.396;2022-10-16T15:18:10;4.20;;;2.60;;
8058;SDS011;4072;42.668;23.396;2022-10-16T15:20:45;5.47;;;2.10;;